N658KP KRNO-KLMT
Flight info
| Callsign | N658KP |
|---|---|
| Flight time | 1h 3m |
| Altitude | 10000 |
| Route | VERDI DNOLD CCAPS T261 MUREX V25 LMT |
| Aircraft | C310/L-SDFGR/S |
Departure
| Time | 2026-05-05 05:21 |
|---|---|
| Airport | Reno Tahoe International Airport (KRNO) |
Arrival
| Time | 2026-05-05 06:24 |
|---|---|
| Airport | Crater Lake-Klamath Regional Airport (KLMT) |
| Time | Latitude | Longitude | Altitude | Speed | Heading |
|---|---|---|---|---|---|
| 2026-05-05 05:09 | 39.49927 | -119.76369 | 4401 ft | 0 kts | 268° |
| 2026-05-05 05:14 | 39.49926 | -119.76374 | 4401 ft | 0 kts | 265° |
| 2026-05-05 05:14 | 39.49923 | -119.76381 | 4401 ft | 1 kts | 207° |
| 2026-05-05 05:14 | 39.49898 | -119.76377 | 4401 ft | 5 kts | 173° |
| 2026-05-05 05:15 | 39.49846 | -119.76382 | 4400 ft | 8 kts | 192° |
| 2026-05-05 05:15 | 39.49777 | -119.76405 | 4400 ft | 11 kts | 198° |
| 2026-05-05 05:15 | 39.49733 | -119.76476 | 4400 ft | 10 kts | 250° |
| 2026-05-05 05:15 | 39.49668 | -119.76524 | 4400 ft | 11 kts | 175° |
| 2026-05-05 05:16 | 39.49574 | -119.76520 | 4400 ft | 14 kts | 177° |
| 2026-05-05 05:16 | 39.49463 | -119.76518 | 4400 ft | 16 kts | 178° |
| 2026-05-05 05:16 | 39.49339 | -119.76519 | 4400 ft | 17 kts | 177° |
| 2026-05-05 05:16 | 39.49216 | -119.76514 | 4402 ft | 16 kts | 188° |
| 2026-05-05 05:17 | 39.49103 | -119.76520 | 4403 ft | 14 kts | 182° |
| 2026-05-05 05:17 | 39.48991 | -119.76524 | 4403 ft | 16 kts | 180° |
| 2026-05-05 05:17 | 39.48924 | -119.76579 | 4403 ft | 0 kts | 264° |
| 2026-05-05 05:19 | 39.48923 | -119.76588 | 4403 ft | 3 kts | 264° |
| 2026-05-05 05:20 | 39.48936 | -119.76651 | 4404 ft | 10 kts | 311° |
| 2026-05-05 05:20 | 39.49050 | -119.76687 | 4403 ft | 34 kts | 354° |
| 2026-05-05 05:20 | 39.49495 | -119.76673 | 4404 ft | 97 kts | 2° |
| 2026-05-05 05:20 | 39.50283 | -119.76681 | 4681 ft | 125 kts | 352° |
| 2026-05-05 05:21 | 39.51227 | -119.76791 | 5074 ft | 142 kts | 352° |
| 2026-05-05 05:21 | 39.52253 | -119.76865 | 5530 ft | 146 kts | 356° |
| 2026-05-05 05:21 | 39.53278 | -119.76868 | 5998 ft | 146 kts | 358° |
| 2026-05-05 05:21 | 39.54306 | -119.76856 | 6471 ft | 146 kts | 358° |
| 2026-05-05 05:22 | 39.55347 | -119.76842 | 6952 ft | 145 kts | 359° |
| 2026-05-05 05:22 | 39.56432 | -119.76824 | 7457 ft | 145 kts | 359° |
| 2026-05-05 05:22 | 39.57457 | -119.76807 | 7934 ft | 144 kts | 359° |
| 2026-05-05 05:22 | 39.58514 | -119.76790 | 8427 ft | 144 kts | 360° |
| 2026-05-05 05:23 | 39.59555 | -119.76772 | 8910 ft | 144 kts | 0° |
| 2026-05-05 05:23 | 39.60587 | -119.76753 | 9388 ft | 144 kts | 1° |
| 2026-05-05 05:23 | 39.61594 | -119.76735 | 9849 ft | 144 kts | 1° |
| 2026-05-05 05:23 | 39.62667 | -119.76711 | 10004 ft | 164 kts | 2° |
| 2026-05-05 05:24 | 39.63859 | -119.76732 | 10000 ft | 181 kts | 350° |
| 2026-05-05 05:24 | 39.65041 | -119.77388 | 9992 ft | 191 kts | 326° |
| 2026-05-05 05:24 | 39.65906 | -119.78722 | 9997 ft | 197 kts | 302° |
| 2026-05-05 05:24 | 39.66218 | -119.80626 | 9989 ft | 203 kts | 266° |
| 2026-05-05 05:25 | 39.66078 | -119.82638 | 10018 ft | 203 kts | 272° |
| 2026-05-05 05:25 | 39.66134 | -119.84679 | 10015 ft | 204 kts | 277° |
| 2026-05-05 05:25 | 39.66293 | -119.86671 | 10014 ft | 204 kts | 280° |
| 2026-05-05 05:25 | 39.66484 | -119.88631 | 10012 ft | 205 kts | 278° |
| 2026-05-05 05:26 | 39.66657 | -119.90580 | 10018 ft | 205 kts | 279° |
| 2026-05-05 05:26 | 39.66855 | -119.92549 | 10018 ft | 206 kts | 279° |
| 2026-05-05 05:26 | 39.67184 | -119.94439 | 10012 ft | 204 kts | 297° |
| 2026-05-05 05:26 | 39.67947 | -119.96091 | 10019 ft | 202 kts | 307° |
| 2026-05-05 05:27 | 39.68904 | -119.97678 | 10018 ft | 202 kts | 311° |
| 2026-05-05 05:27 | 39.69872 | -119.99158 | 10018 ft | 202 kts | 313° |
| 2026-05-05 05:27 | 39.71720 | -120.01899 | 10017 ft | 202 kts | 313° |
| 2026-05-05 05:28 | 39.72739 | -120.03406 | 10018 ft | 202 kts | 313° |
| 2026-05-05 05:28 | 39.73761 | -120.04909 | 10017 ft | 202 kts | 313° |
| 2026-05-05 05:28 | 39.74765 | -120.06390 | 10017 ft | 202 kts | 313° |
| 2026-05-05 05:28 | 39.75776 | -120.07887 | 10017 ft | 202 kts | 314° |
| 2026-05-05 05:29 | 39.76781 | -120.09379 | 10018 ft | 202 kts | 316° |
| 2026-05-05 05:29 | 39.77765 | -120.10828 | 10017 ft | 201 kts | 317° |
| 2026-05-05 05:29 | 39.78711 | -120.12215 | 10016 ft | 200 kts | 317° |
| 2026-05-05 05:29 | 39.79633 | -120.13573 | 10016 ft | 200 kts | 317° |
| 2026-05-05 05:30 | 39.80555 | -120.14933 | 10016 ft | 200 kts | 317° |
| 2026-05-05 05:30 | 39.81479 | -120.16296 | 10016 ft | 200 kts | 317° |
| 2026-05-05 05:30 | 39.82402 | -120.17662 | 10016 ft | 200 kts | 317° |
| 2026-05-05 05:30 | 39.83322 | -120.19022 | 10016 ft | 200 kts | 317° |
| 2026-05-05 05:31 | 39.84241 | -120.20384 | 10016 ft | 200 kts | 317° |
| 2026-05-05 05:31 | 39.85147 | -120.21736 | 10016 ft | 200 kts | 317° |
| 2026-05-05 05:31 | 39.86056 | -120.23099 | 10016 ft | 200 kts | 317° |
| 2026-05-05 05:31 | 39.86979 | -120.24478 | 10016 ft | 200 kts | 317° |
| 2026-05-05 05:32 | 39.87900 | -120.25847 | 10017 ft | 199 kts | 317° |
| 2026-05-05 05:32 | 39.88807 | -120.27195 | 10016 ft | 199 kts | 316° |
| 2026-05-05 05:32 | 39.89731 | -120.28571 | 10016 ft | 198 kts | 316° |
| 2026-05-05 05:32 | 39.90678 | -120.29980 | 10016 ft | 198 kts | 316° |
| 2026-05-05 05:33 | 39.91601 | -120.31352 | 10016 ft | 198 kts | 316° |
| 2026-05-05 05:33 | 39.92519 | -120.32718 | 10016 ft | 198 kts | 316° |
| 2026-05-05 05:33 | 39.93445 | -120.34094 | 10016 ft | 198 kts | 316° |
| 2026-05-05 05:33 | 39.94366 | -120.35465 | 10016 ft | 198 kts | 316° |
| 2026-05-05 05:34 | 39.95302 | -120.36856 | 10014 ft | 198 kts | 316° |
| 2026-05-05 05:34 | 39.96213 | -120.38213 | 10007 ft | 198 kts | 316° |
| 2026-05-05 05:34 | 39.97117 | -120.39557 | 10007 ft | 198 kts | 316° |
| 2026-05-05 05:34 | 39.98042 | -120.40934 | 10007 ft | 198 kts | 316° |
| 2026-05-05 05:35 | 39.98949 | -120.42286 | 10007 ft | 198 kts | 316° |
| 2026-05-05 05:35 | 39.99871 | -120.43659 | 10007 ft | 198 kts | 316° |
| 2026-05-05 05:35 | 40.00774 | -120.45006 | 10007 ft | 198 kts | 316° |
| 2026-05-05 05:35 | 40.01680 | -120.46356 | 10007 ft | 198 kts | 316° |
| 2026-05-05 05:36 | 40.02591 | -120.47716 | 10007 ft | 198 kts | 316° |
| 2026-05-05 05:36 | 40.03503 | -120.49076 | 10005 ft | 198 kts | 316° |
| 2026-05-05 05:36 | 40.04411 | -120.50435 | 10007 ft | 198 kts | 316° |
| 2026-05-05 05:36 | 40.05327 | -120.51804 | 10007 ft | 198 kts | 316° |
| 2026-05-05 05:37 | 40.06251 | -120.53185 | 10007 ft | 198 kts | 316° |
| 2026-05-05 05:37 | 40.07161 | -120.54545 | 10007 ft | 198 kts | 316° |
| 2026-05-05 05:37 | 40.08070 | -120.55906 | 10007 ft | 198 kts | 316° |
| 2026-05-05 05:37 | 40.08969 | -120.57250 | 10007 ft | 198 kts | 316° |
| 2026-05-05 05:38 | 40.09874 | -120.58606 | 10007 ft | 198 kts | 316° |
| 2026-05-05 05:38 | 40.10792 | -120.59980 | 10010 ft | 198 kts | 316° |
| 2026-05-05 05:38 | 40.11689 | -120.61325 | 10011 ft | 198 kts | 316° |
| 2026-05-05 05:38 | 40.12600 | -120.62691 | 10011 ft | 198 kts | 316° |
| 2026-05-05 05:39 | 40.13508 | -120.64053 | 10011 ft | 198 kts | 316° |
| 2026-05-05 05:39 | 40.14422 | -120.65424 | 10010 ft | 199 kts | 316° |
| 2026-05-05 05:39 | 40.15333 | -120.66792 | 10010 ft | 199 kts | 316° |
| 2026-05-05 05:39 | 40.16242 | -120.68157 | 10010 ft | 199 kts | 316° |
| 2026-05-05 05:40 | 40.17155 | -120.69529 | 10010 ft | 199 kts | 316° |
| 2026-05-05 05:40 | 40.18071 | -120.70907 | 10010 ft | 199 kts | 316° |
| 2026-05-05 05:40 | 40.18980 | -120.72274 | 10010 ft | 199 kts | 316° |
| 2026-05-05 05:40 | 40.19890 | -120.73646 | 10017 ft | 197 kts | 320° |
| 2026-05-05 05:41 | 40.20792 | -120.75019 | 10011 ft | 195 kts | 320° |
| 2026-05-05 05:41 | 40.21699 | -120.76363 | 10010 ft | 193 kts | 317° |
| 2026-05-05 05:41 | 40.22584 | -120.77690 | 10010 ft | 193 kts | 316° |
| 2026-05-05 05:41 | 40.23470 | -120.79028 | 10010 ft | 192 kts | 316° |
| 2026-05-05 05:42 | 40.24354 | -120.80363 | 10010 ft | 191 kts | 316° |
| 2026-05-05 05:42 | 40.25240 | -120.81702 | 10010 ft | 191 kts | 317° |
| 2026-05-05 05:42 | 40.26127 | -120.83058 | 10010 ft | 191 kts | 318° |
| 2026-05-05 05:42 | 40.27024 | -120.84411 | 10010 ft | 191 kts | 319° |
| 2026-05-05 05:43 | 40.27925 | -120.85768 | 10010 ft | 191 kts | 319° |
| 2026-05-05 05:43 | 40.28832 | -120.87136 | 10010 ft | 191 kts | 319° |
| 2026-05-05 05:43 | 40.29716 | -120.88470 | 10010 ft | 191 kts | 319° |
| 2026-05-05 05:43 | 40.30616 | -120.89831 | 10010 ft | 191 kts | 319° |
| 2026-05-05 05:44 | 40.31491 | -120.91155 | 10010 ft | 191 kts | 319° |
| 2026-05-05 05:44 | 40.32384 | -120.92506 | 10010 ft | 191 kts | 318° |
| 2026-05-05 05:44 | 40.33259 | -120.93832 | 10010 ft | 191 kts | 318° |
| 2026-05-05 05:44 | 40.34154 | -120.95187 | 10010 ft | 191 kts | 318° |
| 2026-05-05 05:45 | 40.35133 | -120.96672 | 10010 ft | 191 kts | 318° |
| 2026-05-05 05:45 | 40.36094 | -120.98129 | 10010 ft | 191 kts | 318° |
| 2026-05-05 05:45 | 40.37050 | -120.99580 | 10010 ft | 191 kts | 318° |
| 2026-05-05 05:45 | 40.38017 | -121.01048 | 10010 ft | 191 kts | 318° |
| 2026-05-05 05:46 | 40.38987 | -121.02521 | 10010 ft | 191 kts | 318° |
| 2026-05-05 05:46 | 40.39968 | -121.04012 | 10010 ft | 191 kts | 318° |
| 2026-05-05 05:46 | 40.40955 | -121.05514 | 10009 ft | 191 kts | 318° |
| 2026-05-05 05:46 | 40.41921 | -121.06982 | 10009 ft | 191 kts | 318° |
| 2026-05-05 05:47 | 40.42901 | -121.08474 | 10009 ft | 191 kts | 318° |
| 2026-05-05 05:47 | 40.43892 | -121.09936 | 10003 ft | 188 kts | 325° |
| 2026-05-05 05:47 | 40.45119 | -121.10987 | 10010 ft | 184 kts | 334° |
| 2026-05-05 05:47 | 40.46394 | -121.11950 | 10009 ft | 184 kts | 336° |
| 2026-05-05 05:48 | 40.47611 | -121.12830 | 10009 ft | 183 kts | 337° |
| 2026-05-05 05:48 | 40.48828 | -121.13689 | 10009 ft | 183 kts | 338° |
| 2026-05-05 05:48 | 40.49981 | -121.14490 | 10009 ft | 183 kts | 338° |
| 2026-05-05 05:48 | 40.51108 | -121.15266 | 10009 ft | 183 kts | 338° |
| 2026-05-05 05:49 | 40.52252 | -121.16047 | 10009 ft | 183 kts | 338° |
| 2026-05-05 05:49 | 40.53405 | -121.16831 | 10009 ft | 183 kts | 338° |
| 2026-05-05 05:49 | 40.54596 | -121.17638 | 10009 ft | 183 kts | 338° |
| 2026-05-05 05:49 | 40.55839 | -121.18481 | 10009 ft | 183 kts | 339° |
| 2026-05-05 05:50 | 40.57086 | -121.19323 | 10008 ft | 183 kts | 339° |
| 2026-05-05 05:50 | 40.58330 | -121.20163 | 10008 ft | 183 kts | 339° |
| 2026-05-05 05:50 | 40.59591 | -121.21014 | 10008 ft | 183 kts | 339° |
| 2026-05-05 05:50 | 40.60759 | -121.21803 | 10008 ft | 183 kts | 339° |
| 2026-05-05 05:51 | 40.61896 | -121.22572 | 10008 ft | 183 kts | 339° |
| 2026-05-05 05:51 | 40.63029 | -121.23338 | 10008 ft | 183 kts | 339° |
| 2026-05-05 05:51 | 40.64166 | -121.24106 | 10008 ft | 183 kts | 339° |
| 2026-05-05 05:51 | 40.65298 | -121.24871 | 10008 ft | 183 kts | 339° |
| 2026-05-05 05:52 | 40.66423 | -121.25625 | 10008 ft | 182 kts | 337° |
| 2026-05-05 05:52 | 40.67553 | -121.26387 | 10008 ft | 182 kts | 336° |
| 2026-05-05 05:52 | 40.68683 | -121.27155 | 10007 ft | 182 kts | 336° |
| 2026-05-05 05:52 | 40.69808 | -121.27917 | 10007 ft | 182 kts | 336° |
| 2026-05-05 05:53 | 40.70930 | -121.28679 | 10007 ft | 182 kts | 336° |
| 2026-05-05 05:53 | 40.72051 | -121.29439 | 10007 ft | 182 kts | 336° |
| 2026-05-05 05:53 | 40.73172 | -121.30199 | 10007 ft | 182 kts | 336° |
| 2026-05-05 05:53 | 40.74304 | -121.30968 | 10007 ft | 182 kts | 336° |
| 2026-05-05 05:54 | 40.75428 | -121.31731 | 10007 ft | 182 kts | 337° |
| 2026-05-05 05:54 | 40.76606 | -121.32538 | 10007 ft | 182 kts | 338° |
| 2026-05-05 05:54 | 40.77797 | -121.33343 | 10007 ft | 182 kts | 338° |
| 2026-05-05 05:54 | 40.79059 | -121.34199 | 10007 ft | 182 kts | 338° |
| 2026-05-05 05:55 | 40.80310 | -121.35047 | 10003 ft | 182 kts | 338° |
| 2026-05-05 05:55 | 40.81580 | -121.35910 | 10033 ft | 181 kts | 338° |
| 2026-05-05 05:55 | 40.82856 | -121.36777 | 10042 ft | 181 kts | 338° |
| 2026-05-05 05:55 | 40.84139 | -121.37650 | 10043 ft | 182 kts | 338° |
| 2026-05-05 05:56 | 40.85391 | -121.38500 | 10043 ft | 182 kts | 338° |
| 2026-05-05 05:56 | 40.86671 | -121.39372 | 10043 ft | 182 kts | 338° |
| 2026-05-05 05:56 | 40.87925 | -121.40225 | 10043 ft | 182 kts | 338° |
| 2026-05-05 05:56 | 40.89192 | -121.41089 | 10043 ft | 182 kts | 338° |
| 2026-05-05 05:57 | 40.90435 | -121.41936 | 10043 ft | 182 kts | 338° |
| 2026-05-05 05:57 | 40.91662 | -121.42773 | 10043 ft | 182 kts | 338° |
| 2026-05-05 05:57 | 40.92879 | -121.43603 | 10043 ft | 182 kts | 338° |
| 2026-05-05 05:57 | 40.94085 | -121.44426 | 10042 ft | 182 kts | 338° |
| 2026-05-05 05:58 | 40.95297 | -121.45253 | 10042 ft | 182 kts | 338° |
| 2026-05-05 05:58 | 40.96494 | -121.46071 | 10027 ft | 183 kts | 338° |
| 2026-05-05 05:58 | 40.97689 | -121.46888 | 10024 ft | 183 kts | 338° |
| 2026-05-05 05:58 | 40.98885 | -121.47705 | 10024 ft | 183 kts | 338° |
| 2026-05-05 05:59 | 41.00061 | -121.48509 | 10024 ft | 182 kts | 338° |
| 2026-05-05 05:59 | 41.01244 | -121.49319 | 10024 ft | 182 kts | 338° |
| 2026-05-05 05:59 | 41.02492 | -121.50173 | 10024 ft | 182 kts | 338° |
| 2026-05-05 05:59 | 41.03651 | -121.50967 | 10024 ft | 182 kts | 338° |
| 2026-05-05 06:00 | 41.04807 | -121.51759 | 10023 ft | 182 kts | 338° |
| 2026-05-05 06:00 | 41.05949 | -121.52542 | 10023 ft | 182 kts | 338° |
| 2026-05-05 06:00 | 41.07109 | -121.53337 | 10023 ft | 182 kts | 338° |
| 2026-05-05 06:00 | 41.08259 | -121.54125 | 10023 ft | 182 kts | 338° |
| 2026-05-05 06:01 | 41.09420 | -121.54923 | 10023 ft | 182 kts | 338° |
| 2026-05-05 06:01 | 41.10573 | -121.55721 | 10027 ft | 183 kts | 340° |
| 2026-05-05 06:01 | 41.11715 | -121.56506 | 10031 ft | 184 kts | 340° |
| 2026-05-05 06:01 | 41.12862 | -121.57291 | 10032 ft | 185 kts | 340° |
| 2026-05-05 06:02 | 41.14005 | -121.58073 | 10032 ft | 186 kts | 340° |
| 2026-05-05 06:02 | 41.15152 | -121.58861 | 10032 ft | 186 kts | 340° |
| 2026-05-05 06:02 | 41.16313 | -121.59659 | 10033 ft | 186 kts | 340° |
| 2026-05-05 06:02 | 41.17475 | -121.60457 | 10064 ft | 185 kts | 340° |
| 2026-05-05 06:03 | 41.18618 | -121.61243 | 10067 ft | 186 kts | 340° |
| 2026-05-05 06:03 | 41.19763 | -121.62032 | 10068 ft | 186 kts | 340° |
| 2026-05-05 06:03 | 41.20923 | -121.62830 | 10068 ft | 186 kts | 340° |
| 2026-05-05 06:03 | 41.22075 | -121.63625 | 10068 ft | 186 kts | 340° |
| 2026-05-05 06:04 | 41.23225 | -121.64417 | 10067 ft | 187 kts | 340° |
| 2026-05-05 06:04 | 41.24384 | -121.65217 | 10066 ft | 187 kts | 339° |
| 2026-05-05 06:04 | 41.25545 | -121.66017 | 10063 ft | 187 kts | 339° |
| 2026-05-05 06:04 | 41.26740 | -121.66840 | 10064 ft | 187 kts | 339° |
| 2026-05-05 06:05 | 41.27941 | -121.67670 | 10064 ft | 187 kts | 339° |
| 2026-05-05 06:05 | 41.29093 | -121.68467 | 10064 ft | 188 kts | 339° |
| 2026-05-05 06:05 | 41.30257 | -121.69271 | 10064 ft | 188 kts | 339° |
| 2026-05-05 06:05 | 41.31413 | -121.70071 | 10064 ft | 188 kts | 339° |
| 2026-05-05 06:06 | 41.32565 | -121.70868 | 10064 ft | 188 kts | 339° |
| 2026-05-05 06:06 | 41.33729 | -121.71674 | 10064 ft | 188 kts | 339° |
| 2026-05-05 06:06 | 41.34891 | -121.72478 | 10064 ft | 188 kts | 339° |
| 2026-05-05 06:06 | 41.36052 | -121.73282 | 10064 ft | 188 kts | 339° |
| 2026-05-05 06:07 | 41.37209 | -121.74084 | 10064 ft | 188 kts | 339° |
| 2026-05-05 06:07 | 41.38366 | -121.74886 | 10064 ft | 188 kts | 339° |
| 2026-05-05 06:07 | 41.39542 | -121.75697 | 10064 ft | 188 kts | 338° |
| 2026-05-05 06:07 | 41.40698 | -121.76499 | 10064 ft | 188 kts | 338° |
| 2026-05-05 06:08 | 41.41875 | -121.77317 | 10064 ft | 188 kts | 338° |
| 2026-05-05 06:08 | 41.43041 | -121.78127 | 10064 ft | 189 kts | 338° |
| 2026-05-05 06:08 | 41.44187 | -121.78923 | 10064 ft | 189 kts | 338° |
| 2026-05-05 06:08 | 41.45362 | -121.79740 | 10063 ft | 189 kts | 338° |
| 2026-05-05 06:09 | 41.46513 | -121.80540 | 10063 ft | 189 kts | 338° |
| 2026-05-05 06:09 | 41.47749 | -121.81007 | 10069 ft | 180 kts | 4° |
| 2026-05-05 06:09 | 41.49009 | -121.80973 | 10066 ft | 180 kts | 6° |
| 2026-05-05 06:09 | 41.50249 | -121.80850 | 10063 ft | 180 kts | 7° |
| 2026-05-05 06:10 | 41.51504 | -121.80684 | 10063 ft | 180 kts | 8° |
| 2026-05-05 06:10 | 41.52745 | -121.80492 | 10063 ft | 180 kts | 9° |
| 2026-05-05 06:10 | 41.53979 | -121.80282 | 10063 ft | 180 kts | 9° |
| 2026-05-05 06:10 | 41.55223 | -121.80057 | 10063 ft | 180 kts | 10° |
| 2026-05-05 06:11 | 41.56480 | -121.79821 | 10063 ft | 180 kts | 10° |
| 2026-05-05 06:11 | 41.57732 | -121.79579 | 10063 ft | 180 kts | 10° |
| 2026-05-05 06:11 | 41.58999 | -121.79330 | 10063 ft | 180 kts | 10° |
| 2026-05-05 06:11 | 41.60265 | -121.79078 | 10062 ft | 180 kts | 10° |
| 2026-05-05 06:12 | 41.61539 | -121.78822 | 10061 ft | 180 kts | 11° |
| 2026-05-05 06:12 | 41.62853 | -121.78554 | 9899 ft | 183 kts | 10° |
| 2026-05-05 06:12 | 41.64175 | -121.78285 | 9742 ft | 184 kts | 10° |
| 2026-05-05 06:12 | 41.65533 | -121.78007 | 9580 ft | 184 kts | 10° |
| 2026-05-05 06:13 | 41.66964 | -121.77707 | 9406 ft | 185 kts | 11° |
| 2026-05-05 06:13 | 41.68365 | -121.77392 | 9239 ft | 186 kts | 11° |
| 2026-05-05 06:13 | 41.69766 | -121.77073 | 9072 ft | 187 kts | 11° |
| 2026-05-05 06:13 | 41.71144 | -121.76775 | 8908 ft | 187 kts | 10° |
| 2026-05-05 06:14 | 41.72530 | -121.76484 | 8744 ft | 188 kts | 9° |
| 2026-05-05 06:14 | 41.73869 | -121.76207 | 8586 ft | 188 kts | 9° |
| 2026-05-05 06:14 | 41.75266 | -121.75919 | 8421 ft | 188 kts | 9° |
| 2026-05-05 06:14 | 41.76642 | -121.75638 | 8258 ft | 189 kts | 9° |
| 2026-05-05 06:15 | 41.77997 | -121.75361 | 8100 ft | 190 kts | 10° |
| 2026-05-05 06:15 | 41.79378 | -121.75075 | 7939 ft | 190 kts | 9° |
| 2026-05-05 06:15 | 41.80741 | -121.74789 | 7781 ft | 190 kts | 9° |
| 2026-05-05 06:15 | 41.81966 | -121.74064 | 7627 ft | 191 kts | 34° |
| 2026-05-05 06:16 | 41.83155 | -121.73229 | 7450 ft | 189 kts | 9° |
| 2026-05-05 06:16 | 41.84481 | -121.72916 | 7306 ft | 188 kts | 10° |
| 2026-05-05 06:16 | 41.85827 | -121.72594 | 7145 ft | 188 kts | 9° |
| 2026-05-05 06:16 | 41.87127 | -121.72263 | 6987 ft | 189 kts | 13° |
| 2026-05-05 06:17 | 41.88189 | -121.71210 | 6838 ft | 194 kts | 46° |
| 2026-05-05 06:17 | 41.89061 | -121.69827 | 6681 ft | 196 kts | 47° |
| 2026-05-05 06:17 | 41.89926 | -121.68391 | 6527 ft | 196 kts | 46° |
| 2026-05-05 06:17 | 41.90784 | -121.66959 | 6374 ft | 197 kts | 46° |
| 2026-05-05 06:18 | 41.91655 | -121.65501 | 6313 ft | 193 kts | 46° |
| 2026-05-05 06:18 | 41.92495 | -121.64088 | 6306 ft | 189 kts | 46° |
| 2026-05-05 06:18 | 41.93330 | -121.62682 | 6306 ft | 186 kts | 46° |
| 2026-05-05 06:18 | 41.94149 | -121.61299 | 6306 ft | 185 kts | 45° |
| 2026-05-05 06:19 | 41.95190 | -121.60481 | 6310 ft | 173 kts | 1° |
| 2026-05-05 06:19 | 41.96292 | -121.61029 | 6308 ft | 173 kts | 320° |
| 2026-05-05 06:19 | 41.97154 | -121.62248 | 6311 ft | 174 kts | 315° |
| 2026-05-05 06:19 | 41.98056 | -121.63446 | 6305 ft | 173 kts | 325° |
| 2026-05-05 06:20 | 41.99072 | -121.64296 | 6304 ft | 166 kts | 333° |
| 2026-05-05 06:20 | 42.00096 | -121.64954 | 6304 ft | 161 kts | 336° |
| 2026-05-05 06:20 | 42.01125 | -121.65545 | 6305 ft | 158 kts | 338° |
| 2026-05-05 06:20 | 42.02136 | -121.66122 | 6304 ft | 156 kts | 338° |
| 2026-05-05 06:21 | 42.03160 | -121.66663 | 6306 ft | 155 kts | 339° |
| 2026-05-05 06:21 | 42.04166 | -121.67194 | 6218 ft | 159 kts | 338° |
| 2026-05-05 06:21 | 42.05218 | -121.67755 | 6029 ft | 167 kts | 338° |
| 2026-05-05 06:21 | 42.06302 | -121.68341 | 5808 ft | 163 kts | 337° |
| 2026-05-05 06:22 | 42.07359 | -121.68903 | 5588 ft | 162 kts | 337° |
| 2026-05-05 06:22 | 42.08386 | -121.69460 | 5372 ft | 159 kts | 335° |
| 2026-05-05 06:22 | 42.09395 | -121.70011 | 5160 ft | 157 kts | 338° |
| 2026-05-05 06:22 | 42.10414 | -121.70527 | 4941 ft | 148 kts | 334° |
| 2026-05-05 06:23 | 42.11311 | -121.71008 | 4791 ft | 126 kts | 337° |
| 2026-05-05 06:23 | 42.12058 | -121.71417 | 4610 ft | 105 kts | 336° |
| 2026-05-05 06:23 | 42.12702 | -121.71776 | 4431 ft | 96 kts | 336° |
| 2026-05-05 06:23 | 42.13311 | -121.72086 | 4294 ft | 91 kts | 335° |
| 2026-05-05 06:24 | 42.13882 | -121.72410 | 4187 ft | 88 kts | 335° |
| 2026-05-05 06:24 | 42.14426 | -121.72701 | 4102 ft | 73 kts | 336° |
| 2026-05-05 06:24 | 42.14813 | -121.72917 | 4092 ft | 43 kts | 338° |
| 2026-05-05 06:24 | 42.15033 | -121.73030 | 4092 ft | 26 kts | 336° |
| 2026-05-05 06:25 | 42.15175 | -121.73110 | 4094 ft | 18 kts | 318° |
| 2026-05-05 06:25 | 42.15174 | -121.73255 | 4095 ft | 15 kts | 240° |
| 2026-05-05 06:25 | 42.15160 | -121.73320 | 4095 ft | 0 kts | 287° |
| 2026-05-05 06:25 | 42.15155 | -121.73338 | 4095 ft | 5 kts | 244° |
| 2026-05-05 06:26 | 42.15154 | -121.73405 | 4094 ft | 9 kts | 315° |
| 2026-05-05 06:26 | 42.15224 | -121.73444 | 4093 ft | 12 kts | 340° |
| 2026-05-05 06:26 | 42.15317 | -121.73497 | 4092 ft | 16 kts | 337° |
| 2026-05-05 06:26 | 42.15429 | -121.73560 | 4092 ft | 18 kts | 340° |
| 2026-05-05 06:27 | 42.15558 | -121.73629 | 4091 ft | 20 kts | 338° |
| 2026-05-05 06:27 | 42.15853 | -121.73786 | 4091 ft | 23 kts | 339° |
| 2026-05-05 06:27 | 42.16010 | -121.73870 | 4092 ft | 20 kts | 339° |
| 2026-05-05 06:28 | 42.16140 | -121.73942 | 4091 ft | 17 kts | 336° |
| 2026-05-05 06:28 | 42.16256 | -121.74008 | 4091 ft | 16 kts | 338° |
| 2026-05-05 06:28 | 42.16350 | -121.74089 | 4091 ft | 15 kts | 285° |
| 2026-05-05 06:28 | 42.16375 | -121.74226 | 4091 ft | 8 kts | 324° |
| 2026-05-05 06:29 | 42.16455 | -121.74236 | 4092 ft | 14 kts | 359° |
| 2026-05-05 06:29 | 42.16580 | -121.74240 | 4092 ft | 15 kts | 351° |
| 2026-05-05 06:29 | 42.16618 | -121.74316 | 4092 ft | 9 kts | 309° |
| 2026-05-05 06:29 | 42.16627 | -121.74356 | 4092 ft | 0 kts | 261° |